DLH125 EDDP-LKPR
Flight info
| Callsign | DLH125 |
|---|---|
| Flight time | 0h 34m |
| Altitude | 19000 |
| Route | DRN2Q/08L DRN T620 LALUK DCT GOLOP |
| Aircraft | A20N/M-SDE2E3FGHIRWXY/LB1 |
Departure
| Time | 2026-05-05 20:36 |
|---|---|
| Airport | Leipzig/Halle Airport (EDDP) |
Arrival
| Time | 2026-05-05 21:10 |
|---|---|
| Airport | Václav Havel Airport Prague (LKPR) |
| Time | Latitude | Longitude | Altitude | Speed | Heading |
|---|---|---|---|---|---|
| 2026-05-05 20:07 | 51.41845 | 12.22331 | 469 ft | 0 kts | 15° |
| 2026-05-05 20:26 | 51.41840 | 12.22329 | 469 ft | 2 kts | 17° |
| 2026-05-05 20:26 | 51.41826 | 12.22322 | 469 ft | 2 kts | 14° |
| 2026-05-05 20:27 | 51.41811 | 12.22316 | 469 ft | 2 kts | 15° |
| 2026-05-05 20:27 | 51.41799 | 12.22311 | 469 ft | 2 kts | 15° |
| 2026-05-05 20:27 | 51.41785 | 12.22305 | 469 ft | 2 kts | 14° |
| 2026-05-05 20:27 | 51.41771 | 12.22300 | 469 ft | 1 kts | 356° |
| 2026-05-05 20:28 | 51.41757 | 12.22311 | 469 ft | 2 kts | 305° |
| 2026-05-05 20:28 | 51.41753 | 12.22330 | 469 ft | 0 kts | 278° |
| 2026-05-05 20:28 | 51.41752 | 12.22335 | 469 ft | 0 kts | 280° |
| 2026-05-05 20:30 | 51.41753 | 12.22329 | 469 ft | 2 kts | 283° |
| 2026-05-05 20:30 | 51.41767 | 12.22250 | 469 ft | 11 kts | 285° |
| 2026-05-05 20:30 | 51.41797 | 12.22077 | 469 ft | 20 kts | 286° |
| 2026-05-05 20:30 | 51.41839 | 12.21837 | 469 ft | 22 kts | 284° |
| 2026-05-05 20:31 | 51.41880 | 12.21594 | 469 ft | 22 kts | 287° |
| 2026-05-05 20:31 | 51.41919 | 12.21359 | 469 ft | 19 kts | 285° |
| 2026-05-05 20:31 | 51.41947 | 12.21199 | 469 ft | 14 kts | 285° |
| 2026-05-05 20:31 | 51.41975 | 12.21039 | 469 ft | 15 kts | 285° |
| 2026-05-05 20:32 | 51.41963 | 12.20884 | 469 ft | 15 kts | 214° |
| 2026-05-05 20:32 | 51.41862 | 12.20834 | 469 ft | 15 kts | 195° |
| 2026-05-05 20:32 | 51.41757 | 12.20788 | 469 ft | 15 kts | 195° |
| 2026-05-05 20:32 | 51.41653 | 12.20743 | 469 ft | 15 kts | 195° |
| 2026-05-05 20:33 | 51.41547 | 12.20696 | 469 ft | 15 kts | 195° |
| 2026-05-05 20:33 | 51.41440 | 12.20650 | 469 ft | 13 kts | 195° |
| 2026-05-05 20:33 | 51.41422 | 12.20642 | 469 ft | 0 kts | 195° |
| 2026-05-05 20:34 | 51.41420 | 12.20641 | 469 ft | 1 kts | 195° |
| 2026-05-05 20:34 | 51.41396 | 12.20631 | 469 ft | 6 kts | 195° |
| 2026-05-05 20:34 | 51.41334 | 12.20603 | 469 ft | 12 kts | 195° |
| 2026-05-05 20:35 | 51.41235 | 12.20561 | 469 ft | 12 kts | 191° |
| 2026-05-05 20:35 | 51.41166 | 12.20614 | 469 ft | 7 kts | 98° |
| 2026-05-05 20:35 | 51.41169 | 12.20653 | 469 ft | 0 kts | 85° |
| 2026-05-05 20:35 | 51.41169 | 12.20655 | 469 ft | 1 kts | 85° |
| 2026-05-05 20:36 | 51.41190 | 12.21085 | 469 ft | 79 kts | 84° |
| 2026-05-05 20:36 | 51.41249 | 12.22372 | 469 ft | 147 kts | 85° |
| 2026-05-05 20:36 | 51.41338 | 12.24179 | 777 ft | 173 kts | 83° |
| 2026-05-05 20:36 | 51.41446 | 12.26113 | 1446 ft | 180 kts | 83° |
| 2026-05-05 20:37 | 51.41562 | 12.28116 | 2220 ft | 184 kts | 83° |
| 2026-05-05 20:37 | 51.41688 | 12.30149 | 3027 ft | 184 kts | 83° |
| 2026-05-05 20:37 | 51.41824 | 12.32213 | 3678 ft | 191 kts | 83° |
| 2026-05-05 20:37 | 51.41949 | 12.34408 | 4160 ft | 210 kts | 86° |
| 2026-05-05 20:38 | 51.42022 | 12.36854 | 4650 ft | 230 kts | 87° |
| 2026-05-05 20:38 | 51.42105 | 12.39522 | 5212 ft | 248 kts | 87° |
| 2026-05-05 20:38 | 51.42210 | 12.42343 | 5917 ft | 260 kts | 87° |
| 2026-05-05 20:38 | 51.42330 | 12.45213 | 6829 ft | 263 kts | 88° |
| 2026-05-05 20:39 | 51.42459 | 12.48163 | 7715 ft | 267 kts | 89° |
| 2026-05-05 20:39 | 51.42590 | 12.51137 | 8530 ft | 273 kts | 89° |
| 2026-05-05 20:39 | 51.42700 | 12.54206 | 9301 ft | 278 kts | 95° |
| 2026-05-05 20:39 | 51.42405 | 12.57242 | 10032 ft | 279 kts | 112° |
| 2026-05-05 20:40 | 51.41576 | 12.60064 | 10577 ft | 289 kts | 124° |
| 2026-05-05 20:40 | 51.40475 | 12.62858 | 11007 ft | 306 kts | 127° |
| 2026-05-05 20:40 | 51.39265 | 12.65818 | 11406 ft | 325 kts | 128° |
| 2026-05-05 20:40 | 51.38010 | 12.68912 | 11761 ft | 343 kts | 127° |
| 2026-05-05 20:41 | 51.36677 | 12.72233 | 12210 ft | 357 kts | 127° |
| 2026-05-05 20:41 | 51.35351 | 12.75563 | 12912 ft | 362 kts | 127° |
| 2026-05-05 20:41 | 51.33982 | 12.79010 | 13655 ft | 366 kts | 128° |
| 2026-05-05 20:41 | 51.32615 | 12.82446 | 14323 ft | 371 kts | 128° |
| 2026-05-05 20:42 | 51.31204 | 12.85985 | 14981 ft | 376 kts | 128° |
| 2026-05-05 20:42 | 51.29808 | 12.89482 | 15625 ft | 381 kts | 128° |
| 2026-05-05 20:42 | 51.28354 | 12.93115 | 16251 ft | 386 kts | 129° |
| 2026-05-05 20:42 | 51.26902 | 12.96739 | 16854 ft | 391 kts | 129° |
| 2026-05-05 20:43 | 51.25427 | 13.00413 | 17547 ft | 393 kts | 129° |
| 2026-05-05 20:43 | 51.23955 | 13.04079 | 18243 ft | 394 kts | 129° |
| 2026-05-05 20:43 | 51.22471 | 13.07762 | 18661 ft | 396 kts | 129° |
| 2026-05-05 20:43 | 51.20983 | 13.11445 | 18799 ft | 398 kts | 128° |
| 2026-05-05 20:44 | 51.19473 | 13.15184 | 18800 ft | 398 kts | 128° |
| 2026-05-05 20:44 | 51.17971 | 13.18899 | 18804 ft | 398 kts | 127° |
| 2026-05-05 20:44 | 51.16478 | 13.22602 | 18811 ft | 399 kts | 127° |
| 2026-05-05 20:44 | 51.14977 | 13.26381 | 18824 ft | 399 kts | 127° |
| 2026-05-05 20:45 | 51.12011 | 13.33864 | 18867 ft | 398 kts | 127° |
| 2026-05-05 20:45 | 51.10516 | 13.37619 | 18890 ft | 398 kts | 127° |
| 2026-05-05 20:45 | 51.09020 | 13.41365 | 18915 ft | 398 kts | 127° |
| 2026-05-05 20:46 | 51.07540 | 13.45064 | 18937 ft | 398 kts | 127° |
| 2026-05-05 20:46 | 51.06041 | 13.48803 | 18955 ft | 398 kts | 127° |
| 2026-05-05 20:46 | 51.04555 | 13.52503 | 18968 ft | 398 kts | 127° |
| 2026-05-05 20:46 | 51.03060 | 13.56195 | 18977 ft | 397 kts | 129° |
| 2026-05-05 20:47 | 51.01303 | 13.59541 | 18981 ft | 390 kts | 141° |
| 2026-05-05 20:47 | 50.99186 | 13.62207 | 18986 ft | 383 kts | 153° |
| 2026-05-05 20:47 | 50.96920 | 13.64310 | 18992 ft | 381 kts | 157° |
| 2026-05-05 20:47 | 50.94596 | 13.66324 | 18992 ft | 380 kts | 158° |
| 2026-05-05 20:48 | 50.92294 | 13.68343 | 18993 ft | 381 kts | 156° |
| 2026-05-05 20:48 | 50.90057 | 13.70676 | 18991 ft | 387 kts | 148° |
| 2026-05-05 20:48 | 50.88028 | 13.73529 | 18993 ft | 393 kts | 139° |
| 2026-05-05 20:48 | 50.86231 | 13.76769 | 18996 ft | 396 kts | 134° |
| 2026-05-05 20:49 | 50.84480 | 13.80185 | 18996 ft | 396 kts | 133° |
| 2026-05-05 20:49 | 50.82756 | 13.83573 | 18996 ft | 396 kts | 134° |
| 2026-05-05 20:49 | 50.81072 | 13.87037 | 18996 ft | 398 kts | 130° |
| 2026-05-05 20:49 | 50.79523 | 13.90700 | 18996 ft | 399 kts | 126° |
| 2026-05-05 20:50 | 50.78135 | 13.94500 | 18997 ft | 400 kts | 123° |
| 2026-05-05 20:50 | 50.76820 | 13.98260 | 18995 ft | 399 kts | 122° |
| 2026-05-05 20:50 | 50.75467 | 14.02141 | 18996 ft | 398 kts | 122° |
| 2026-05-05 20:50 | 50.74135 | 14.05943 | 18996 ft | 398 kts | 123° |
| 2026-05-05 20:51 | 50.72795 | 14.09752 | 18995 ft | 398 kts | 123° |
| 2026-05-05 20:51 | 50.71463 | 14.13519 | 18995 ft | 398 kts | 123° |
| 2026-05-05 20:51 | 50.70105 | 14.17354 | 18993 ft | 398 kts | 123° |
| 2026-05-05 20:51 | 50.68771 | 14.21109 | 18984 ft | 398 kts | 123° |
| 2026-05-05 20:52 | 50.67403 | 14.24954 | 18965 ft | 399 kts | 123° |
| 2026-05-05 20:52 | 50.66038 | 14.28783 | 18937 ft | 399 kts | 123° |
| 2026-05-05 20:52 | 50.64677 | 14.32595 | 18900 ft | 399 kts | 123° |
| 2026-05-05 20:52 | 50.63304 | 14.36436 | 18860 ft | 399 kts | 123° |
| 2026-05-05 20:53 | 50.61919 | 14.40192 | 18816 ft | 397 kts | 128° |
| 2026-05-05 20:53 | 50.60024 | 14.43234 | 18767 ft | 383 kts | 152° |
| 2026-05-05 20:53 | 50.57642 | 14.44829 | 18752 ft | 368 kts | 175° |
| 2026-05-05 20:53 | 50.55146 | 14.44961 | 18648 ft | 355 kts | 194° |
| 2026-05-05 20:54 | 50.52849 | 14.43768 | 18212 ft | 340 kts | 214° |
| 2026-05-05 20:54 | 50.50874 | 14.41775 | 17804 ft | 334 kts | 218° |
| 2026-05-05 20:54 | 50.48957 | 14.39727 | 17389 ft | 332 kts | 218° |
| 2026-05-05 20:54 | 50.47039 | 14.37704 | 16979 ft | 329 kts | 217° |
| 2026-05-05 20:55 | 50.45161 | 14.35806 | 16577 ft | 329 kts | 212° |
| 2026-05-05 20:55 | 50.43003 | 14.34515 | 16164 ft | 333 kts | 196° |
| 2026-05-05 20:55 | 50.40703 | 14.34216 | 15756 ft | 338 kts | 181° |
| 2026-05-05 20:55 | 50.38376 | 14.34595 | 15348 ft | 338 kts | 177° |
| 2026-05-05 20:56 | 50.36039 | 14.35092 | 14935 ft | 336 kts | 176° |
| 2026-05-05 20:56 | 50.33726 | 14.35591 | 14530 ft | 334 kts | 176° |
| 2026-05-05 20:56 | 50.31441 | 14.36072 | 14131 ft | 331 kts | 176° |
| 2026-05-05 20:56 | 50.29160 | 14.36541 | 13732 ft | 329 kts | 176° |
| 2026-05-05 20:57 | 50.26903 | 14.36997 | 13333 ft | 327 kts | 175° |
| 2026-05-05 20:57 | 50.24676 | 14.37444 | 12940 ft | 325 kts | 175° |
| 2026-05-05 20:57 | 50.22417 | 14.37895 | 12540 ft | 323 kts | 175° |
| 2026-05-05 20:57 | 50.20197 | 14.38338 | 12147 ft | 321 kts | 175° |
| 2026-05-05 20:58 | 50.17997 | 14.38776 | 11758 ft | 319 kts | 175° |
| 2026-05-05 20:58 | 50.15792 | 14.39292 | 11354 ft | 319 kts | 168° |
| 2026-05-05 20:58 | 50.13764 | 14.40690 | 10950 ft | 322 kts | 147° |
| 2026-05-05 20:58 | 50.12163 | 14.43074 | 10565 ft | 325 kts | 131° |
| 2026-05-05 20:59 | 50.10807 | 14.45863 | 10186 ft | 324 kts | 128° |
| 2026-05-05 20:59 | 50.09492 | 14.48689 | 9866 ft | 319 kts | 128° |
| 2026-05-05 20:59 | 50.08208 | 14.51416 | 9814 ft | 304 kts | 128° |
| 2026-05-05 20:59 | 50.06969 | 14.54004 | 9757 ft | 290 kts | 129° |
| 2026-05-05 21:00 | 50.05752 | 14.56515 | 9471 ft | 288 kts | 129° |
| 2026-05-05 21:00 | 50.04538 | 14.59001 | 9148 ft | 287 kts | 129° |
| 2026-05-05 21:00 | 50.03328 | 14.61474 | 8831 ft | 285 kts | 129° |
| 2026-05-05 21:00 | 50.02139 | 14.63901 | 8520 ft | 283 kts | 128° |
| 2026-05-05 21:01 | 50.00938 | 14.66357 | 8207 ft | 282 kts | 129° |
| 2026-05-05 21:01 | 49.99755 | 14.68785 | 7900 ft | 280 kts | 129° |
| 2026-05-05 21:01 | 49.98593 | 14.71167 | 7600 ft | 278 kts | 129° |
| 2026-05-05 21:01 | 49.97374 | 14.73508 | 7276 ft | 276 kts | 139° |
| 2026-05-05 21:02 | 49.95741 | 14.74963 | 6953 ft | 269 kts | 169° |
| 2026-05-05 21:02 | 49.93938 | 14.75027 | 6648 ft | 261 kts | 197° |
| 2026-05-05 21:02 | 49.92331 | 14.73845 | 6358 ft | 254 kts | 218° |
| 2026-05-05 21:02 | 49.91035 | 14.71994 | 6043 ft | 251 kts | 238° |
| 2026-05-05 21:03 | 49.90375 | 14.69536 | 5745 ft | 246 kts | 263° |
| 2026-05-05 21:03 | 49.90473 | 14.66923 | 5447 ft | 241 kts | 288° |
| 2026-05-05 21:03 | 49.91243 | 14.64668 | 5189 ft | 237 kts | 306° |
| 2026-05-05 21:03 | 49.92241 | 14.62651 | 4933 ft | 233 kts | 308° |
| 2026-05-05 21:04 | 49.93242 | 14.60715 | 4676 ft | 229 kts | 309° |
| 2026-05-05 21:04 | 49.94249 | 14.58808 | 4419 ft | 225 kts | 308° |
| 2026-05-05 21:04 | 49.95221 | 14.56908 | 4165 ft | 222 kts | 307° |
| 2026-05-05 21:04 | 49.96150 | 14.55024 | 3977 ft | 215 kts | 307° |
| 2026-05-05 21:05 | 49.97014 | 14.53236 | 3957 ft | 200 kts | 306° |
| 2026-05-05 21:05 | 49.97807 | 14.51578 | 4037 ft | 180 kts | 306° |
| 2026-05-05 21:05 | 49.98512 | 14.50102 | 3959 ft | 160 kts | 306° |
| 2026-05-05 21:05 | 49.99144 | 14.48776 | 3944 ft | 148 kts | 306° |
| 2026-05-05 21:06 | 49.99752 | 14.47499 | 3984 ft | 148 kts | 305° |
| 2026-05-05 21:06 | 50.00363 | 14.46217 | 3976 ft | 148 kts | 305° |
| 2026-05-05 21:06 | 50.00983 | 14.44919 | 3828 ft | 148 kts | 304° |
| 2026-05-05 21:06 | 50.01592 | 14.43642 | 3642 ft | 147 kts | 308° |
| 2026-05-05 21:07 | 50.02195 | 14.42386 | 3455 ft | 145 kts | 308° |
| 2026-05-05 21:07 | 50.02721 | 14.41289 | 3292 ft | 145 kts | 308° |
| 2026-05-05 21:07 | 50.03350 | 14.39978 | 3098 ft | 145 kts | 308° |
| 2026-05-05 21:07 | 50.03948 | 14.38734 | 2909 ft | 144 kts | 307° |
| 2026-05-05 21:08 | 50.04549 | 14.37483 | 2710 ft | 144 kts | 310° |
| 2026-05-05 21:08 | 50.05153 | 14.36233 | 2519 ft | 144 kts | 309° |
| 2026-05-05 21:08 | 50.05747 | 14.35006 | 2333 ft | 143 kts | 306° |
| 2026-05-05 21:08 | 50.06343 | 14.33763 | 2136 ft | 142 kts | 307° |
| 2026-05-05 21:09 | 50.06934 | 14.32533 | 1941 ft | 142 kts | 307° |
| 2026-05-05 21:09 | 50.07532 | 14.31292 | 1751 ft | 143 kts | 309° |
| 2026-05-05 21:09 | 50.08139 | 14.30035 | 1561 ft | 144 kts | 308° |
| 2026-05-05 21:09 | 50.08732 | 14.28811 | 1371 ft | 141 kts | 308° |
| 2026-05-05 21:10 | 50.09309 | 14.27603 | 1225 ft | 137 kts | 308° |
| 2026-05-05 21:10 | 50.09721 | 14.26754 | 1214 ft | 61 kts | 305° |
| 2026-05-05 21:10 | 50.09956 | 14.26268 | 1205 ft | 54 kts | 307° |
| 2026-05-05 21:10 | 50.10167 | 14.25835 | 1193 ft | 35 kts | 306° |
| 2026-05-05 21:11 | 50.10309 | 14.25652 | 1185 ft | 26 kts | 342° |
| 2026-05-05 21:11 | 50.10423 | 14.25634 | 1180 ft | 0 kts | 5° |
| 2026-05-05 21:12 | 50.10426 | 14.25634 | 1180 ft | 1 kts | 5° |
| 2026-05-05 21:12 | 50.10454 | 14.25641 | 1179 ft | 6 kts | 13° |
| 2026-05-05 21:12 | 50.10488 | 14.25710 | 1177 ft | 10 kts | 81° |
| 2026-05-05 21:12 | 50.10501 | 14.25826 | 1177 ft | 11 kts | 79° |
| 2026-05-05 21:13 | 50.10515 | 14.25944 | 1178 ft | 10 kts | 78° |
| 2026-05-05 21:13 | 50.10530 | 14.26056 | 1179 ft | 11 kts | 78° |
| 2026-05-05 21:13 | 50.10537 | 14.26180 | 1179 ft | 11 kts | 92° |
| 2026-05-05 21:13 | 50.10515 | 14.26264 | 1181 ft | 3 kts | 124° |
| 2026-05-05 21:14 | 50.10514 | 14.26288 | 1182 ft | 2 kts | 58° |
| 2026-05-05 21:14 | 50.10531 | 14.26309 | 1181 ft | 4 kts | 34° |
| 2026-05-05 21:14 | 50.10557 | 14.26337 | 1181 ft | 2 kts | 33° |
| 2026-05-05 21:14 | 50.10568 | 14.26347 | 1181 ft | 0 kts | 33° |